Celebrity Infinity — 9HJD9 — position and weather

sailwx.info

Track history (hours):
 
Tides and Currents Weather Stations Pressure Air Temp Water Temp Dewpoint Dewpoint Depression Visibility Wind Speed Wind Dir Waves Ship Positions

Celebrity Infinity

Last reported at 2018-Jul-20 14:00 UTC. Time now 2018-Jul-20 15:46 UTC.
Position N 56°00' W 133°48'.

Length 294 m; draft 8.3 m.

Type: Ship. MMSI: 249048000.

Wind from 010 at 18 knots

Barometer 1020.0 mb
Air temperature 27.0 ° C
Visibility: greater than 5.4 NM
Dewpoint 25.6 ° C
Water temperature 10.0 ° C

Date/timePositionNaut miles runAvg speedWind from/ knotsBaromVisibWave heightAir tempDewpointWater temp
2018-Jul-20 14:00N 56°00' W 133°48'18 8.9 010 / 181020.0 5.4 27.025.610.0
2018-Jul-20 12:00N 56°06' W 134°18'3030.2 250 / 71020.0 2.2 13.0 12.0
2018-Jul-20 11:00N 56°36' W 134°24'6917.2 360 / 201018.027.0 10.0
2018-Jul-20 07:00N 57°42' W 133°48'36 7.1 1019.0 5.4 10.0 9.0
2018-Jul-20 02:00N 58°12' W 134°24'0 0.0 270 / 131017.0 2.2 17.0 12.0
2018-Jul-19 20:00N 58°12' W 134°24'7 1.1 270 / 81018.027.0 9.0
2018-Jul-19 14:00N 58°06' W 134°18'2019.8 360 / 141019.0 5.4 25.023.612.0
2018-Jul-19 13:00N 58°18' W 134°48'12 6.2 300 / 121019.0 2.2 14.0 14.5
2018-Jul-19 11:00N 58°06' W 134°54'1133.0 270 / 81020.027.0 10.0
2018-Jul-19 10:40N 58°09' W 135°14'414.9
2018-Jul-19 10:22N 58°11' W 135°21'715.4
2018-Jul-19 09:54N 58°14' W 135°33'615.5
2018-Jul-19 09:30N 58°17' W 135°43'714.9
2018-Jul-19 09:00N 58°19' W 135°57'917.0
2018-Jul-19 08:29N 58°18' W 136°13'1 1.7
2018-Jul-19 08:00N 58°18' W 136°12'5251.5 300 / 51019.027.0 11.0
2018-Jul-19 07:00N 59°06' W 136°48'5418.0 330 / 121020.0 5.4 16.0 14.0
2018-Jul-19 04:00N 58°30' W 138°06'17 8.7 300 / 151019.0 2.2 15.0 15.2
2018-Jul-19 02:00N 58°42' W 138°30'2222.2 010 / 151019.0 5.4 25.023.614.0
2018-Jul-19 01:00N 58°54' W 139°06'3216.1 290 / 151018.0 5.4 15.0 15.2
2018-Jul-18 23:00N 59°18' W 139°48'2412.0 260 / 151019.027.0 14.0
2018-Jul-18 21:00N 59°42' W 139°48'24 4.0 210 / 101019.027.0 11.0
2018-Jul-18 15:00N 59°18' W 139°48'2828.1 350 / 51016.0 2.2 14.0 15.0
2018-Jul-18 14:00N 59°00' W 139°06'8617.3 010 / 181016.0 5.4 25.023.614.0
2018-Jul-18 09:00N 58°12' W 136°48'1615.8 350 / 51015.027.0 11.0
2018-Jul-18 08:00N 58°12' W 136°18'722.4 270 / 131014.0 5.4 14.0 10.0
2018-Jul-18 07:39N 58°19' W 136°11'318.5
2018-Jul-18 07:30N 58°20' W 136°06'918.4
2018-Jul-18 07:00N 58°19' W 135°48'1335.2
2018-Jul-18 07:00N 58°18' W 135°48'917.7 270 / 131014.0 5.4 12.0 11.0
2018-Jul-18 06:30N 58°15' W 135°33'10 2.8
2018-Jul-18 03:00N 58°06' W 135°24'0 0.0 010 1011.0 5.4 26.024.610.0
2018-Jul-18 01:00N 58°06' W 135°24'4 1.6 010 1011.0 5.4 26.024.610.0
2018-Jul-17 22:34N 58°10' W 135°23'114.0
2018-Jul-17 22:30N 58°10' W 135°22'2818.7
2018-Jul-17 21:00N 57°48' W 134°48'18 9.1 350 / 151013.027.0 15.0
2018-Jul-17 19:00N 57°30' W 134°42'1818.0 340 / 81013.0 5.4 12.0 10.0
2018-Jul-17 18:00N 57°12' W 134°42'5413.6 330 / 81014.0 1.1 11.0 9.0
2018-Jul-17 14:00N 56°18' W 134°30'3636.2 010 / 171013.0 25.023.6
2018-Jul-17 13:00N 55°42' W 134°24'3417.2 010 / 171013.0 5.4 25.023.611.0
2018-Jul-17 11:00N 55°12' W 133°54'6716.7 280 / 101015.027.0 10.0
2018-Jul-17 07:00N 54°30' W 132°24'2914.8 280 / 151016.0 1.1 15.0 12.0
2018-Jul-17 05:04N 54°24' W 131°36'12171.5
2018-Jul-17 05:00N 54°18' W 131°18'10441.2 350 / 131017.0 5.4 16.0 12.0
2018-Jul-17 04:58N 54°23' W 131°33'919.8
2018-Jul-17 04:30N 54°21' W 131°18'1019.5
2018-Jul-17 04:01N 54°16' W 131°04'1019.9
2018-Jul-17 03:30N 54°06' W 131°00'1018.9
2018-Jul-17 03:00N 53°56' W 130°58'918.8
2018-Jul-17 02:31N 53°47' W 130°54'918.5
2018-Jul-17 02:00N 53°38' W 130°50'918.6
2018-Jul-17 01:30N 53°29' W 130°48'611.9
2018-Jul-17 01:00N 53°24' W 130°42'4150.0 010 / 191017.0 5.4 25.023.613.0
2018-Jul-17 00:58N 53°20' W 130°40'2222.8
2018-Jul-17 00:00N 53°00' W 130°24'713.1 010 / 201017.0 5.4 25.023.615.0
2018-Jul-16 23:28N 52°54' W 130°19'1019.5
2018-Jul-16 22:58N 52°45' W 130°13'1219.7
2018-Jul-16 22:21N 52°34' W 130°05'719.4
2018-Jul-16 22:00N 52°27' W 130°00'101178.8
2018-Jul-16 22:00N 52°18' W 129°54'1 1.8 290 / 91018.027.0
2018-Jul-16 21:30N 52°19' W 129°54'1019.6
2018-Jul-16 21:00N 52°10' W 129°48'1019.2
2018-Jul-16 20:31N 52°01' W 129°42'1019.3
2018-Jul-16 20:00N 51°52' W 129°35'5354.5
2018-Jul-16 20:00N 51°48' W 129°30'4 9.1 270 / 151018.027.0 15.0
2018-Jul-16 19:31N 51°44' W 129°28'918.9
2018-Jul-16 19:01N 51°38' W 129°16'1019.3
2018-Jul-16 18:31N 51°32' W 129°03'1019.4
2018-Jul-16 18:01N 51°27' W 128°50'919.0
2018-Jul-16 17:31N 51°22' W 128°38'1019.2
2018-Jul-16 17:01N 51°16' W 128°25'1019.9
2018-Jul-16 16:31N 51°10' W 128°12'1020.1
2018-Jul-16 16:00N 51°04' W 127°59'918.9
2018-Jul-16 15:31N 50°59' W 127°47'713.0
2018-Jul-16 15:00N 50°55' W 127°39'1020.8
2018-Jul-16 14:30N 50°49' W 127°25'1019.9
2018-Jul-16 14:00N 50°45' W 127°11'1019.7
2018-Jul-16 13:30N 50°42' W 126°56'918.7
2018-Jul-16 13:00N 50°36' W 126°44'1127.2
2018-Jul-16 13:00N 50°36' W 126°42'812.8 010 / 191016.0 5.4 25.023.611.0
2018-Jul-16 12:24N 50°30' W 126°34'1537.9
2018-Jul-16 12:00N 50°24' W 126°12'8654.5 010 / 181016.0 5.4 25.023.611.0
2018-Jul-16 11:59N 50°30' W 126°22'1118.3
2018-Jul-16 11:24N 50°28' W 126°05'717.1
2018-Jul-16 11:00N 50°24' W 125°56'1916.5
2018-Jul-16 09:51N 50°20' W 125°27'515.1
2018-Jul-16 09:30N 50°15' W 125°23'815.7
2018-Jul-16 09:00N 50°08' W 125°21'611.1
2018-Jul-16 08:30N 50°04' W 125°15'612.3
2018-Jul-16 08:00N 49°58' W 125°11'611.7
2018-Jul-16 07:29N 49°54' W 125°04'511.1
2018-Jul-16 07:00N 49°50' W 124°58'611.1
2018-Jul-16 06:28N 49°46' W 124°51'511.2
2018-Jul-16 06:00N 49°43' W 124°45'74174.1
2018-Jul-16 06:00N 49°36' W 124°42'3 5.2 340 / 261011.0 5.4 18.0 14.0
2018-Jul-16 05:30N 49°38' W 124°40'611.3
2018-Jul-16 05:00N 49°34' W 124°35'5398.2
2018-Jul-16 05:00N 49°30' W 124°30'1 1.7 320 / 231011.0 5.4 17.0 14.0
2018-Jul-16 04:30N 49°29' W 124°29'611.3
2018-Jul-16 04:00N 49°27' W 124°22'811.8
2018-Jul-16 03:18N 49°24' W 124°09'411.9
2018-Jul-16 02:56N 49°23' W 124°03'512.0
2018-Jul-16 02:29N 49°22' W 123°55'612.3
2018-Jul-16 02:00N 49°18' W 123°48'4873.9 020 / 121010.0 5.4 26.024.615.0
2018-Jul-16 01:59N 49°21' W 123°46'612.0
2018-Jul-16 01:28N 49°20' W 123°36'816.2
2018-Jul-16 01:00N 49°19' W 123°25'5330.7
2018-Jul-16 01:00N 49°18' W 123°18'1 2.4 310 / 201010.0 5.4 16.0 15.0
2018-Jul-16 00:30N 49°19' W 123°18'4 7.7
2018-Jul-16 00:00N 49°18' W 123°12'2355.4 010 / 121011.0 5.4 25.023.613.0
2018-Jul-15 23:59N 49°19' W 123°09'2 4.4
2018-Jul-15 23:30N 49°17' W 123°06'0 0.2
2018-Jul-15 23:00N 49°17' W 123°07'0 0.0
2018-Jul-15 22:30N 49°17' W 123°07'0 0.0
2018-Jul-15 22:00N 49°17' W 123°07'0 0.0
2018-Jul-15 21:29N 49°17' W 123°07'0 0.0
2018-Jul-15 20:59N 49°17' W 123°07'0 0.0
2018-Jul-15 20:29N 49°17' W 123°07'0 0.0
2018-Jul-15 19:59N 49°17' W 123°07'0 0.0
2018-Jul-15 19:28N 49°17' W 123°07'0 0.0
2018-Jul-15 18:58N 49°17' W 123°07'0 0.0
2018-Jul-15 18:28N 49°17' W 123°07'0 0.0
2018-Jul-15 17:58N 49°17' W 123°07'0 0.0
2018-Jul-15 17:28N 49°17' W 123°07'0 0.0
2018-Jul-15 17:00N 49°17' W 123°07'0 0.0
2018-Jul-15 16:30N 49°17' W 123°07'0 0.0
2018-Jul-15 16:00N 49°17' W 123°07'0 0.0
2018-Jul-15 15:30N 49°17' W 123°07'0 0.0
2018-Jul-15 15:00N 49°17' W 123°07'0 0.0
2018-Jul-15 14:29N 49°17' W 123°07'0 0.0
2018-Jul-15 14:00N 49°17' W 123°07'5354.0
2018-Jul-15 14:00N 49°12' W 123°06'611.6 360 1014.0 5.4 25.023.614.0
2018-Jul-15 13:30N 49°18' W 123°06'4 7.4
2018-Jul-15 13:00N 49°19' W 123°12'157.8
2018-Jul-15 13:00N 49°18' W 123°12'5 9.0 360 / 101013.0 5.4 26.024.615.0
2018-Jul-15 12:29N 49°18' W 123°19'6 9.6
2018-Jul-15 11:55N 49°17' W 123°27'5 9.5
2018-Jul-15 11:26N 49°17' W 123°34'512.4
2018-Jul-15 11:00N 49°12' W 123°36'832.9 270 / 221014.027.0 10.0
2018-Jul-15 10:44N 49°19' W 123°44'14 9.5
2018-Jul-15 09:18N 49°22' W 124°04'4 9.6
2018-Jul-15 08:52N 49°23' W 124°10'4 9.5
2018-Jul-15 08:26N 49°25' W 124°16'4 9.5
2018-Jul-15 07:58N 49°26' W 124°22'5 9.9
2018-Jul-15 07:29N 49°29' W 124°28'5 9.9
2018-Jul-15 07:00N 49°33' W 124°33'3280.6
2018-Jul-15 07:00N 49°30' W 124°30'817.2 290 / 61014.0 5.4 13.0 12.0
2018-Jul-15 06:30N 49°36' W 124°39'510.0
2018-Jul-15 06:00N 49°40' W 124°43'5 9.8
2018-Jul-15 05:30N 49°44' W 124°49'5 9.6
2018-Jul-15 05:00N 49°47' W 124°54'6403.5
2018-Jul-15 05:00N 49°42' W 124°48'1122.7 050 / 41014.0 5.4 15.0 13.0
2018-Jul-15 04:30N 49°51' W 124°59'510.8
2018-Jul-15 04:00N 49°55' W 125°05'612.0
2018-Jul-15 03:29N 49°59' W 125°12'510.8
2018-Jul-15 03:00N 50°04' W 125°15'612.0
2018-Jul-15 02:30N 50°08' W 125°21'1019.7
2018-Jul-15 02:00N 50°18' W 125°24'1104.5 020 / 151015.0 5.4 26.024.611.0
2018-Jul-15 01:59N 50°17' W 125°24'2020.6
2018-Jul-15 01:00N 50°24' W 125°54'912.0 320 / 201016.0 2.2 14.0 15.0
2018-Jul-15 00:14N 50°28' W 126°07'519.4
2018-Jul-14 23:56N 50°29' W 126°15'819.3
2018-Jul-14 23:30N 50°30' W 126°29'915.2
2018-Jul-14 22:54N 50°34' W 126°42'3419.8
2018-Jul-14 21:12N 50°50' W 127°28'421.3
2018-Jul-14 21:00N 50°52' W 127°34'8464.6
2018-Jul-14 21:00N 50°48' W 127°24'1735.6 330 / 31020.027.0 11.0
2018-Jul-14 20:31N 50°58' W 127°46'816.5
2018-Jul-14 20:00N 51°04' W 127°56'1020.2
2018-Jul-14 19:31N 51°10' W 128°09'1020.2
2018-Jul-14 19:00N 51°15' W 128°23'1019.4
2018-Jul-14 18:30N 51°20' W 128°36'918.9
2018-Jul-14 18:00N 51°26' W 128°48'918.8
2018-Jul-14 17:30N 51°31' W 128°60'1019.1
2018-Jul-14 17:00N 51°37' W 129°12'6383.4
2018-Jul-14 17:00N 51°42' W 129°18'4 9.2 300 / 151021.0 5.4 16.0 14.0
2018-Jul-14 16:30N 51°42' W 129°25'1019.5
2018-Jul-14 16:00N 51°51' W 129°34'1019.9
2018-Jul-14 15:30N 51°60' W 129°41'1020.1
2018-Jul-14 15:00N 52°09' W 129°47'3198.2
2018-Jul-14 15:00N 52°12' W 129°48'715.0 020 / 201021.0 5.4 26.024.615.0
2018-Jul-14 14:31N 52°18' W 129°54'2120.5
2018-Jul-14 13:30N 52°37' W 130°07'611.0
2018-Jul-14 13:00N 52°42' W 130°12'3324.5 020 / 211021.0 5.4 25.023.615.0
2018-Jul-14 11:38N 53°12' W 130°34'420.7
2018-Jul-14 11:27N 53°16' W 130°37'920.4
2018-Jul-14 11:00N 53°24' W 130°43'13888.6
2018-Jul-14 11:00N 53°12' W 130°36'2347.4 350 / 151022.027.0 10.0
2018-Jul-14 10:30N 53°34' W 130°49'1020.3
2018-Jul-14 10:00N 53°44' W 130°52'1020.1
2018-Jul-14 09:31N 53°53' W 130°56'1020.0
2018-Jul-14 09:01N 54°03' W 130°60'1020.8
2018-Jul-14 08:30N 54°13' W 131°03'1121.2
2018-Jul-14 08:00N 54°24' W 131°08'1020.4
2018-Jul-14 07:31N 54°33' W 131°14'3 6.0
2018-Jul-14 07:00N 54°36' W 131°12'999.8 280 / 201022.0 5.4 14.0 11.0
2018-Jul-14 06:54N 54°45' W 131°12'819.2
2018-Jul-14 06:30N 54°52' W 131°08'2214.3
2018-Jul-14 05:00N 55°12' W 131°24'9 9.1 270 / 111022.0 5.4 17.0 13.0
2018-Jul-14 04:00N 55°18' W 131°36'0 0.0 020 1022.0 5.4 26.024.614.0
2018-Jul-14 02:00N 55°18' W 131°36'0 0.0 020 1022.0 5.4 25.023.613.0
2018-Jul-14 00:00N 55°18' W 131°36'0 0.0 290 / 71022.027.0 12.0
2018-Jul-13 22:00N 55°18' W 131°36'12 5.9 080 / 171022.027.0 13.0
2018-Jul-13 20:00N 55°24' W 131°54'1615.7 280 / 71022.0 5.4 17.0 14.0
2018-Jul-13 19:00N 55°36' W 132°12'6115.1 310 / 81022.0 5.4 17.0 13.0
2018-Jul-13 15:00N 56°18' W 133°30'2110.3 170 / 101022.0 2.2 14.0 12.0
2018-Jul-13 13:00N 56°00' W 133°48'5217.3 360 / 171022.0 5.4 27.025.610.0
2018-Jul-13 10:00N 56°48' W 134°24'3617.9 270 / 61019.027.0 10.0
2018-Jul-13 08:00N 57°18' W 133°48'1212.4 270 / 21020.0 5.4 11.0 11.0
2018-Jul-13 07:00N 57°30' W 133°42'48 9.5 170 / 81020.0 5.4 11.0 10.0
2018-Jul-13 02:00N 58°12' W 134°24'0 0.0 010 1019.0 5.4 26.024.610.0
2018-Jul-13 00:00N 58°12' W 134°24'0 0.0 130 / 101019.027.0 10.0
2018-Jul-12 21:00N 58°12' W 134°24'0 0.0 020 / 151019.027.0 12.0
2018-Jul-12 15:00N 58°12' W 134°24'11 5.6 360 1020.0 5.4 26.024.611.0
2018-Jul-12 13:00N 58°18' W 134°42'15 7.6 170 / 131019.0 2.2 12.0 15.6
2018-Jul-12 11:00N 58°06' W 135°00'1119.9 160 / 101019.027.0 15.0
2018-Jul-12 10:26N 58°10' W 135°19'716.5
2018-Jul-12 10:00N 58°13' W 135°31'816.0
2018-Jul-12 09:30N 58°17' W 135°44'714.7
2018-Jul-12 09:00N 58°19' W 135°58'1615.3
2018-Jul-12 08:00N 58°12' W 136°24'9 8.7 190 / 101019.0 5.4 14.0 13.0
2018-Jul-12 07:00N 58°06' W 136°36'7515.0 270 / 61019.0 5.4 13.0 12.0
2018-Jul-12 02:00N 58°42' W 138°42'2625.9 010 / 161019.0 5.4 26.024.614.0
2018-Jul-12 01:00N 59°00' W 139°18'2411.8 020 / 161018.0 2.2 26.024.614.0
2018-Jul-11 23:00N 59°18' W 139°48'3015.1 250 / 151018.027.0 13.0
2018-Jul-11 21:00N 59°48' W 139°42'43 6.1 050 / 51018.027.0 8.0
2018-Jul-11 14:00N 59°06' W 139°24'3030.4 020 / 201016.0 5.4 25.023.614.0
2018-Jul-11 13:00N 58°42' W 138°48'1717.3 020 / 191016.0 5.4 25.023.614.0
2018-Jul-11 12:00N 58°30' W 138°24'6120.4 210 / 151016.027.0 11.0
2018-Jul-11 09:00N 57°42' W 137°12'1817.6 250 / 151016.027.0 10.0
2018-Jul-11 08:00N 57°30' W 136°48'4019.8 230 / 191016.0 5.4 14.0 10.0
2018-Jul-11 06:00N 57°00' W 136°00'24 7.9 230 / 171017.0 5.4 13.0 12.0
2018-Jul-11 03:00N 57°06' W 135°18'0 0.0 010 1016.0 5.4 26.024.614.0
2018-Jul-11 01:00N 57°06' W 135°18'0 0.0 010 1016.0 5.4 26.024.614.0
2018-Jul-11 00:00N 57°06' W 135°18'3 0.5 190 / 151016.027.0 14.0
2018-Jul-10 17:00N 57°06' W 135°24'3015.1 180 / 141013.0 5.4 13.0 13.0
2018-Jul-10 15:00N 56°36' W 135°30'   020 / 181014.0 5.4 26.024.613.0
Track history (hours):
 
Tides and Currents Weather Stations Pressure Air Temp Water Temp Dewpoint Dewpoint Depression Visibility Wind Speed Wind Dir Waves Ship Positions

Celebrity Infinity

Last reported at 2018-Jul-20 14:00 UTC. Time now 2018-Jul-20 15:46 UTC.
Position N 56°00' W 133°48'.

Length 294 m; draft 8.3 m.

Type: Ship. MMSI: 249048000.

Wind from 010 at 18 knots

Barometer 1020.0 mb
Air temperature 27.0 ° C
Visibility: greater than 5.4 NM
Dewpoint 25.6 ° C
Water temperature 10.0 ° C

Date/timePositionNaut miles runAvg speedWind from/ knotsBaromVisibWave heightAir tempDewpointWater temp
2018-Jul-20 14:00N 56°00' W 133°48'18 8.9 010 / 181020.0 5.4 27.025.610.0
2018-Jul-20 12:00N 56°06' W 134°18'3030.2 250 / 71020.0 2.2 13.0 12.0
2018-Jul-20 11:00N 56°36' W 134°24'6917.2 360 / 201018.027.0 10.0
2018-Jul-20 07:00N 57°42' W 133°48'36 7.1 1019.0 5.4 10.0 9.0
2018-Jul-20 02:00N 58°12' W 134°24'0 0.0 270 / 131017.0 2.2 17.0 12.0
2018-Jul-19 20:00N 58°12' W 134°24'7 1.1 270 / 81018.027.0 9.0
2018-Jul-19 14:00N 58°06' W 134°18'2019.8 360 / 141019.0 5.4 25.023.612.0
2018-Jul-19 13:00N 58°18' W 134°48'12 6.2 300 / 121019.0 2.2 14.0 14.5
2018-Jul-19 11:00N 58°06' W 134°54'1133.0 270 / 81020.027.0 10.0
2018-Jul-19 10:40N 58°09' W 135°14'414.9
2018-Jul-19 10:22N 58°11' W 135°21'715.4
2018-Jul-19 09:54N 58°14' W 135°33'615.5
2018-Jul-19 09:30N 58°17' W 135°43'714.9
2018-Jul-19 09:00N 58°19' W 135°57'917.0
2018-Jul-19 08:29N 58°18' W 136°13'1 1.7
2018-Jul-19 08:00N 58°18' W 136°12'5251.5 300 / 51019.027.0 11.0
2018-Jul-19 07:00N 59°06' W 136°48'5418.0 330 / 121020.0 5.4 16.0 14.0
2018-Jul-19 04:00N 58°30' W 138°06'17 8.7 300 / 151019.0 2.2 15.0 15.2
2018-Jul-19 02:00N 58°42' W 138°30'2222.2 010 / 151019.0 5.4 25.023.614.0
2018-Jul-19 01:00N 58°54' W 139°06'3216.1 290 / 151018.0 5.4 15.0 15.2
2018-Jul-18 23:00N 59°18' W 139°48'2412.0 260 / 151019.027.0 14.0
2018-Jul-18 21:00N 59°42' W 139°48'24 4.0 210 / 101019.027.0 11.0
2018-Jul-18 15:00N 59°18' W 139°48'2828.1 350 / 51016.0 2.2 14.0 15.0
2018-Jul-18 14:00N 59°00' W 139°06'8617.3 010 / 181016.0 5.4 25.023.614.0
2018-Jul-18 09:00N 58°12' W 136°48'1615.8 350 / 51015.027.0 11.0
2018-Jul-18 08:00N 58°12' W 136°18'722.4 270 / 131014.0 5.4 14.0 10.0
2018-Jul-18 07:39N 58°19' W 136°11'318.5
2018-Jul-18 07:30N 58°20' W 136°06'918.4
2018-Jul-18 07:00N 58°19' W 135°48'1335.2
2018-Jul-18 07:00N 58°18' W 135°48'917.7 270 / 131014.0 5.4 12.0 11.0
2018-Jul-18 06:30N 58°15' W 135°33'10 2.8
2018-Jul-18 03:00N 58°06' W 135°24'0 0.0 010 1011.0 5.4 26.024.610.0
2018-Jul-18 01:00N 58°06' W 135°24'4 1.6 010 1011.0 5.4 26.024.610.0
2018-Jul-17 22:34N 58°10' W 135°23'114.0
2018-Jul-17 22:30N 58°10' W 135°22'2818.7
2018-Jul-17 21:00N 57°48' W 134°48'18 9.1 350 / 151013.027.0 15.0
2018-Jul-17 19:00N 57°30' W 134°42'1818.0 340 / 81013.0 5.4 12.0 10.0
2018-Jul-17 18:00N 57°12' W 134°42'5413.6 330 / 81014.0 1.1 11.0 9.0
2018-Jul-17 14:00N 56°18' W 134°30'3636.2 010 / 171013.0 25.023.6
2018-Jul-17 13:00N 55°42' W 134°24'3417.2 010 / 171013.0 5.4 25.023.611.0
2018-Jul-17 11:00N 55°12' W 133°54'6716.7 280 / 101015.027.0 10.0
2018-Jul-17 07:00N 54°30' W 132°24'2914.8 280 / 151016.0 1.1 15.0 12.0
2018-Jul-17 05:04N 54°24' W 131°36'12171.5
2018-Jul-17 05:00N 54°18' W 131°18'10441.2 350 / 131017.0 5.4 16.0 12.0
2018-Jul-17 04:58N 54°23' W 131°33'919.8
2018-Jul-17 04:30N 54°21' W 131°18'1019.5
2018-Jul-17 04:01N 54°16' W 131°04'1019.9
2018-Jul-17 03:30N 54°06' W 131°00'1018.9
2018-Jul-17 03:00N 53°56' W 130°58'918.8
2018-Jul-17 02:31N 53°47' W 130°54'918.5
2018-Jul-17 02:00N 53°38' W 130°50'918.6
2018-Jul-17 01:30N 53°29' W 130°48'611.9
2018-Jul-17 01:00N 53°24' W 130°42'4150.0 010 / 191017.0 5.4 25.023.613.0
2018-Jul-17 00:58N 53°20' W 130°40'2222.8
2018-Jul-17 00:00N 53°00' W 130°24'713.1 010 / 201017.0 5.4 25.023.615.0
2018-Jul-16 23:28N 52°54' W 130°19'1019.5
2018-Jul-16 22:58N 52°45' W 130°13'1219.7
2018-Jul-16 22:21N 52°34' W 130°05'719.4
2018-Jul-16 22:00N 52°27' W 130°00'101178.8
2018-Jul-16 22:00N 52°18' W 129°54'1 1.8 290 / 91018.027.0
2018-Jul-16 21:30N 52°19' W 129°54'1019.6
2018-Jul-16 21:00N 52°10' W 129°48'1019.2
2018-Jul-16 20:31N 52°01' W 129°42'1019.3
2018-Jul-16 20:00N 51°52' W 129°35'5354.5
2018-Jul-16 20:00N 51°48' W 129°30'4 9.1 270 / 151018.027.0 15.0
2018-Jul-16 19:31N 51°44' W 129°28'918.9
2018-Jul-16 19:01N 51°38' W 129°16'1019.3
2018-Jul-16 18:31N 51°32' W 129°03'1019.4
2018-Jul-16 18:01N 51°27' W 128°50'919.0
2018-Jul-16 17:31N 51°22' W 128°38'1019.2
2018-Jul-16 17:01N 51°16' W 128°25'1019.9
2018-Jul-16 16:31N 51°10' W 128°12'1020.1
2018-Jul-16 16:00N 51°04' W 127°59'918.9
2018-Jul-16 15:31N 50°59' W 127°47'713.0
2018-Jul-16 15:00N 50°55' W 127°39'1020.8
2018-Jul-16 14:30N 50°49' W 127°25'1019.9
2018-Jul-16 14:00N 50°45' W 127°11'1019.7
2018-Jul-16 13:30N 50°42' W 126°56'918.7
2018-Jul-16 13:00N 50°36' W 126°44'1127.2
2018-Jul-16 13:00N 50°36' W 126°42'812.8 010 / 191016.0 5.4 25.023.611.0
2018-Jul-16 12:24N 50°30' W 126°34'1537.9
2018-Jul-16 12:00N 50°24' W 126°12'8654.5 010 / 181016.0 5.4 25.023.611.0
2018-Jul-16 11:59N 50°30' W 126°22'1118.3
2018-Jul-16 11:24N 50°28' W 126°05'717.1
2018-Jul-16 11:00N 50°24' W 125°56'1916.5
2018-Jul-16 09:51N 50°20' W 125°27'515.1
2018-Jul-16 09:30N 50°15' W 125°23'815.7
2018-Jul-16 09:00N 50°08' W 125°21'611.1
2018-Jul-16 08:30N 50°04' W 125°15'612.3
2018-Jul-16 08:00N 49°58' W 125°11'611.7
2018-Jul-16 07:29N 49°54' W 125°04'511.1
2018-Jul-16 07:00N 49°50' W 124°58'611.1
2018-Jul-16 06:28N 49°46' W 124°51'511.2
2018-Jul-16 06:00N 49°43' W 124°45'74174.1
2018-Jul-16 06:00N 49°36' W 124°42'3 5.2 340 / 261011.0 5.4 18.0 14.0
2018-Jul-16 05:30N 49°38' W 124°40'611.3
2018-Jul-16 05:00N 49°34' W 124°35'5398.2
2018-Jul-16 05:00N 49°30' W 124°30'1 1.7 320 / 231011.0 5.4 17.0 14.0
2018-Jul-16 04:30N 49°29' W 124°29'611.3
2018-Jul-16 04:00N 49°27' W 124°22'811.8
2018-Jul-16 03:18N 49°24' W 124°09'411.9
2018-Jul-16 02:56N 49°23' W 124°03'512.0
2018-Jul-16 02:29N 49°22' W 123°55'612.3
2018-Jul-16 02:00N 49°18' W 123°48'4873.9 020 / 121010.0 5.4 26.024.615.0
2018-Jul-16 01:59N 49°21' W 123°46'612.0
2018-Jul-16 01:28N 49°20' W 123°36'816.2
2018-Jul-16 01:00N 49°19' W 123°25'5330.7
2018-Jul-16 01:00N 49°18' W 123°18'1 2.4 310 / 201010.0 5.4 16.0 15.0
2018-Jul-16 00:30N 49°19' W 123°18'4 7.7
2018-Jul-16 00:00N 49°18' W 123°12'2355.4 010 / 121011.0 5.4 25.023.613.0
2018-Jul-15 23:59N 49°19' W 123°09'2 4.4
2018-Jul-15 23:30N 49°17' W 123°06'0 0.2
2018-Jul-15 23:00N 49°17' W 123°07'0 0.0
2018-Jul-15 22:30N 49°17' W 123°07'0 0.0
2018-Jul-15 22:00N 49°17' W 123°07'0 0.0
2018-Jul-15 21:29N 49°17' W 123°07'0 0.0
2018-Jul-15 20:59N 49°17' W 123°07'0 0.0
2018-Jul-15 20:29N 49°17' W 123°07'0 0.0
2018-Jul-15 19:59N 49°17' W 123°07'0 0.0
2018-Jul-15 19:28N 49°17' W 123°07'0 0.0
2018-Jul-15 18:58N 49°17' W 123°07'0 0.0
2018-Jul-15 18:28N 49°17' W 123°07'0 0.0
2018-Jul-15 17:58N 49°17' W 123°07'0 0.0
2018-Jul-15 17:28N 49°17' W 123°07'0 0.0
2018-Jul-15 17:00N 49°17' W 123°07'0 0.0
2018-Jul-15 16:30N 49°17' W 123°07'0 0.0
2018-Jul-15 16:00N 49°17' W 123°07'0 0.0
2018-Jul-15 15:30N 49°17' W 123°07'0 0.0
2018-Jul-15 15:00N 49°17' W 123°07'0 0.0
2018-Jul-15 14:29N 49°17' W 123°07'0 0.0
2018-Jul-15 14:00N 49°17' W 123°07'5354.0
2018-Jul-15 14:00N 49°12' W 123°06'611.6 360 1014.0 5.4 25.023.614.0
2018-Jul-15 13:30N 49°18' W 123°06'4 7.4
2018-Jul-15 13:00N 49°19' W 123°12'157.8
2018-Jul-15 13:00N 49°18' W 123°12'5 9.0 360 / 101013.0 5.4 26.024.615.0
2018-Jul-15 12:29N 49°18' W 123°19'6 9.6
2018-Jul-15 11:55N 49°17' W 123°27'5 9.5
2018-Jul-15 11:26N 49°17' W 123°34'512.4
2018-Jul-15 11:00N 49°12' W 123°36'832.9 270 / 221014.027.0 10.0
2018-Jul-15 10:44N 49°19' W 123°44'14 9.5
2018-Jul-15 09:18N 49°22' W 124°04'4 9.6
2018-Jul-15 08:52N 49°23' W 124°10'4 9.5
2018-Jul-15 08:26N 49°25' W 124°16'4 9.5
2018-Jul-15 07:58N 49°26' W 124°22'5 9.9
2018-Jul-15 07:29N 49°29' W 124°28'5 9.9
2018-Jul-15 07:00N 49°33' W 124°33'3280.6
2018-Jul-15 07:00N 49°30' W 124°30'817.2 290 / 61014.0 5.4 13.0 12.0
2018-Jul-15 06:30N 49°36' W 124°39'510.0
2018-Jul-15 06:00N 49°40' W 124°43'5 9.8
2018-Jul-15 05:30N 49°44' W 124°49'5 9.6
2018-Jul-15 05:00N 49°47' W 124°54'6403.5
2018-Jul-15 05:00N 49°42' W 124°48'1122.7 050 / 41014.0 5.4 15.0 13.0
2018-Jul-15 04:30N 49°51' W 124°59'510.8
2018-Jul-15 04:00N 49°55' W 125°05'612.0
2018-Jul-15 03:29N 49°59' W 125°12'510.8
2018-Jul-15 03:00N 50°04' W 125°15'612.0
2018-Jul-15 02:30N 50°08' W 125°21'1019.7
2018-Jul-15 02:00N 50°18' W 125°24'1104.5 020 / 151015.0 5.4 26.024.611.0
2018-Jul-15 01:59N 50°17' W 125°24'2020.6
2018-Jul-15 01:00N 50°24' W 125°54'912.0 320 / 201016.0 2.2 14.0 15.0
2018-Jul-15 00:14N 50°28' W 126°07'519.4
2018-Jul-14 23:56N 50°29' W 126°15'819.3
2018-Jul-14 23:30N 50°30' W 126°29'915.2
2018-Jul-14 22:54N 50°34' W 126°42'3419.8
2018-Jul-14 21:12N 50°50' W 127°28'421.3
2018-Jul-14 21:00N 50°52' W 127°34'8464.6
2018-Jul-14 21:00N 50°48' W 127°24'1735.6 330 / 31020.027.0 11.0
2018-Jul-14 20:31N 50°58' W 127°46'816.5
2018-Jul-14 20:00N 51°04' W 127°56'1020.2
2018-Jul-14 19:31N 51°10' W 128°09'1020.2
2018-Jul-14 19:00N 51°15' W 128°23'1019.4
2018-Jul-14 18:30N 51°20' W 128°36'918.9
2018-Jul-14 18:00N 51°26' W 128°48'918.8
2018-Jul-14 17:30N 51°31' W 128°60'1019.1
2018-Jul-14 17:00N 51°37' W 129°12'6383.4
2018-Jul-14 17:00N 51°42' W 129°18'4 9.2 300 / 151021.0 5.4 16.0 14.0
2018-Jul-14 16:30N 51°42' W 129°25'1019.5
2018-Jul-14 16:00N 51°51' W 129°34'1019.9
2018-Jul-14 15:30N 51°60' W 129°41'1020.1
2018-Jul-14 15:00N 52°09' W 129°47'3198.2
2018-Jul-14 15:00N 52°12' W 129°48'715.0 020 / 201021.0 5.4 26.024.615.0
2018-Jul-14 14:31N 52°18' W 129°54'2120.5
2018-Jul-14 13:30N 52°37' W 130°07'611.0
2018-Jul-14 13:00N 52°42' W 130°12'3324.5 020 / 211021.0 5.4 25.023.615.0
2018-Jul-14 11:38N 53°12' W 130°34'420.7
2018-Jul-14 11:27N 53°16' W 130°37'920.4
2018-Jul-14 11:00N 53°24' W 130°43'13888.6
2018-Jul-14 11:00N 53°12' W 130°36'2347.4 350 / 151022.027.0 10.0
2018-Jul-14 10:30N 53°34' W 130°49'1020.3
2018-Jul-14 10:00N 53°44' W 130°52'1020.1
2018-Jul-14 09:31N 53°53' W 130°56'1020.0
2018-Jul-14 09:01N 54°03' W 130°60'1020.8
2018-Jul-14 08:30N 54°13' W 131°03'1121.2
2018-Jul-14 08:00N 54°24' W 131°08'1020.4
2018-Jul-14 07:31N 54°33' W 131°14'3 6.0
2018-Jul-14 07:00N 54°36' W 131°12'999.8 280 / 201022.0 5.4 14.0 11.0
2018-Jul-14 06:54N 54°45' W 131°12'819.2
2018-Jul-14 06:30N 54°52' W 131°08'2214.3
2018-Jul-14 05:00N 55°12' W 131°24'9 9.1 270 / 111022.0 5.4 17.0 13.0
2018-Jul-14 04:00N 55°18' W 131°36'0 0.0 020 1022.0 5.4 26.024.614.0
2018-Jul-14 02:00N 55°18' W 131°36'0 0.0 020 1022.0 5.4 25.023.613.0
2018-Jul-14 00:00N 55°18' W 131°36'0 0.0 290 / 71022.027.0 12.0
2018-Jul-13 22:00N 55°18' W 131°36'12 5.9 080 / 171022.027.0 13.0
2018-Jul-13 20:00N 55°24' W 131°54'1615.7 280 / 71022.0 5.4 17.0 14.0
2018-Jul-13 19:00N 55°36' W 132°12'6115.1 310 / 81022.0 5.4 17.0 13.0
2018-Jul-13 15:00N 56°18' W 133°30'2110.3 170 / 101022.0 2.2 14.0 12.0
2018-Jul-13 13:00N 56°00' W 133°48'5217.3 360 / 171022.0 5.4 27.025.610.0
2018-Jul-13 10:00N 56°48' W 134°24'3617.9 270 / 61019.027.0 10.0
2018-Jul-13 08:00N 57°18' W 133°48'1212.4 270 / 21020.0 5.4 11.0 11.0
2018-Jul-13 07:00N 57°30' W 133°42'48 9.5 170 / 81020.0 5.4 11.0 10.0
2018-Jul-13 02:00N 58°12' W 134°24'0 0.0 010 1019.0 5.4 26.024.610.0
2018-Jul-13 00:00N 58°12' W 134°24'0 0.0 130 / 101019.027.0 10.0
2018-Jul-12 21:00N 58°12' W 134°24'0 0.0 020 / 151019.027.0 12.0
2018-Jul-12 15:00N 58°12' W 134°24'11 5.6 360 1020.0 5.4 26.024.611.0
2018-Jul-12 13:00N 58°18' W 134°42'15 7.6 170 / 131019.0 2.2 12.0 15.6
2018-Jul-12 11:00N 58°06' W 135°00'1119.9 160 / 101019.027.0 15.0
2018-Jul-12 10:26N 58°10' W 135°19'716.5
2018-Jul-12 10:00N 58°13' W 135°31'816.0
2018-Jul-12 09:30N 58°17' W 135°44'714.7
2018-Jul-12 09:00N 58°19' W 135°58'1615.3
2018-Jul-12 08:00N 58°12' W 136°24'9 8.7 190 / 101019.0 5.4 14.0 13.0
2018-Jul-12 07:00N 58°06' W 136°36'7515.0 270 / 61019.0 5.4 13.0 12.0
2018-Jul-12 02:00N 58°42' W 138°42'2625.9 010 / 161019.0 5.4 26.024.614.0
2018-Jul-12 01:00N 59°00' W 139°18'2411.8 020 / 161018.0 2.2 26.024.614.0
2018-Jul-11 23:00N 59°18' W 139°48'3015.1 250 / 151018.027.0 13.0
2018-Jul-11 21:00N 59°48' W 139°42'43 6.1 050 / 51018.027.0 8.0
2018-Jul-11 14:00N 59°06' W 139°24'3030.4 020 / 201016.0 5.4 25.023.614.0
2018-Jul-11 13:00N 58°42' W 138°48'1717.3 020 / 191016.0 5.4 25.023.614.0
2018-Jul-11 12:00N 58°30' W 138°24'6120.4 210 / 151016.027.0 11.0
2018-Jul-11 09:00N 57°42' W 137°12'1817.6 250 / 151016.027.0 10.0
2018-Jul-11 08:00N 57°30' W 136°48'4019.8 230 / 191016.0 5.4 14.0 10.0
2018-Jul-11 06:00N 57°00' W 136°00'24 7.9 230 / 171017.0 5.4 13.0 12.0
2018-Jul-11 03:00N 57°06' W 135°18'0 0.0 010 1016.0 5.4 26.024.614.0
2018-Jul-11 01:00N 57°06' W 135°18'0 0.0 010 1016.0 5.4 26.024.614.0
2018-Jul-11 00:00N 57°06' W 135°18'3 0.5 190 / 151016.027.0 14.0
2018-Jul-10 17:00N 57°06' W 135°24'3015.1 180 / 141013.0 5.4 13.0 13.0
2018-Jul-10 15:00N 56°36' W 135°30'   020 / 181014.0 5.4 26.024.613.0

Dump ship's entire track history